sensor_id;sensor_type;location;lat;lon;timestamp;pressure;altitude;pressure_sealevel;temperature;humidity
71109;BME280;59614;51.012;-1.648;2022-12-24T00:01:18;99791.13;;;7.95;100.00
71109;BME280;59614;51.012;-1.648;2022-12-24T00:03:44;99793.75;;;7.95;100.00
71109;BME280;59614;51.012;-1.648;2022-12-24T00:06:15;99801.56;;;7.99;100.00
71109;BME280;59614;51.012;-1.648;2022-12-24T00:08:41;99799.94;;;7.91;100.00
71109;BME280;59614;51.012;-1.648;2022-12-24T00:11:07;99802.66;;;7.84;100.00
71109;BME280;59614;51.012;-1.648;2022-12-24T00:13:32;99806.16;;;7.86;100.00
71109;BME280;59614;51.012;-1.648;2022-12-24T00:15:58;99803.59;;;7.80;100.00
71109;BME280;59614;51.012;-1.648;2022-12-24T00:18:24;99812.34;;;7.82;100.00
71109;BME280;59614;51.012;-1.648;2022-12-24T00:20:50;99812.38;;;7.79;100.00
71109;BME280;59614;51.012;-1.648;2022-12-24T00:23:16;99811.34;;;7.89;100.00
71109;BME280;59614;51.012;-1.648;2022-12-24T00:25:42;99809.59;;;7.88;100.00
71109;BME280;59614;51.012;-1.648;2022-12-24T00:28:08;99825.34;;;7.88;100.00
71109;BME280;59614;51.012;-1.648;2022-12-24T00:30:33;99824.50;;;7.88;100.00
71109;BME280;59614;51.012;-1.648;2022-12-24T00:32:58;99821.00;;;7.89;100.00
71109;BME280;59614;51.012;-1.648;2022-12-24T00:35:24;99835.06;;;7.85;100.00
71109;BME280;59614;51.012;-1.648;2022-12-24T00:37:50;99839.44;;;7.83;100.00
71109;BME280;59614;51.012;-1.648;2022-12-24T00:40:16;99828.03;;;7.87;100.00
71109;BME280;59614;51.012;-1.648;2022-12-24T00:42:42;99839.44;;;7.84;100.00
71109;BME280;59614;51.012;-1.648;2022-12-24T00:45:08;99836.00;;;7.79;100.00
71109;BME280;59614;51.012;-1.648;2022-12-24T00:47:34;99840.31;;;7.85;100.00
71109;BME280;59614;51.012;-1.648;2022-12-24T00:49:59;99834.97;;;7.91;100.00
71109;BME280;59614;51.012;-1.648;2022-12-24T00:52:25;99832.44;;;7.86;100.00
71109;BME280;59614;51.012;-1.648;2022-12-24T00:54:50;99839.53;;;7.80;100.00
71109;BME280;59614;51.012;-1.648;2022-12-24T00:57:16;99835.94;;;7.85;100.00
71109;BME280;59614;51.012;-1.648;2022-12-24T00:59:41;99842.94;;;7.86;100.00
71109;BME280;59614;51.012;-1.648;2022-12-24T01:02:06;99847.34;;;7.84;100.00
71109;BME280;59614;51.012;-1.648;2022-12-24T01:04:32;99842.03;;;7.87;100.00
71109;BME280;59614;51.012;-1.648;2022-12-24T01:07:16;99842.94;;;7.86;100.00
71109;BME280;59614;51.012;-1.648;2022-12-24T01:09:42;99842.09;;;7.84;100.00
71109;BME280;59614;51.012;-1.648;2022-12-24T01:12:07;99843.00;;;7.80;100.00
71109;BME280;59614;51.012;-1.648;2022-12-24T01:14:32;99839.50;;;7.81;100.00
71109;BME280;59614;51.012;-1.648;2022-12-24T01:16:58;99836.00;;;7.79;100.00
71109;BME280;59614;51.012;-1.648;2022-12-24T01:19:23;99842.16;;;7.80;100.00
71109;BME280;59614;51.012;-1.648;2022-12-24T01:21:49;99832.53;;;7.77;100.00
71109;BME280;59614;51.012;-1.648;2022-12-24T01:24:15;99839.59;;;7.75;100.00
71109;BME280;59614;51.012;-1.648;2022-12-24T01:26:41;99849.22;;;7.76;100.00
71109;BME280;59614;51.012;-1.648;2022-12-24T01:29:07;99852.63;;;7.81;100.00
71109;BME280;59614;51.012;-1.648;2022-12-24T01:31:33;99853.50;;;7.80;100.00
71109;BME280;59614;51.012;-1.648;2022-12-24T01:33:59;99853.53;;;7.79;100.00
71109;BME280;59614;51.012;-1.648;2022-12-24T01:36:24;99858.81;;;7.79;100.00
71109;BME280;59614;51.012;-1.648;2022-12-24T01:38:50;99857.94;;;7.77;100.00
71109;BME280;59614;51.012;-1.648;2022-12-24T01:41:17;99860.53;;;7.78;100.00
71109;BME280;59614;51.012;-1.648;2022-12-24T01:44:24;99869.34;;;7.76;100.00
71109;BME280;59614;51.012;-1.648;2022-12-24T01:47:07;99868.50;;;7.75;100.00
71109;BME280;59614;51.012;-1.648;2022-12-24T01:49:36;99872.88;;;7.73;100.00
71109;BME280;59614;51.012;-1.648;2022-12-24T01:52:09;99869.38;;;7.72;100.00
71109;BME280;59614;51.012;-1.648;2022-12-24T01:54:43;99873.84;;;7.67;100.00
71109;BME280;59614;51.012;-1.648;2022-12-24T01:57:21;99876.47;;;7.66;100.00
71109;BME280;59614;51.012;-1.648;2022-12-24T01:59:54;99894.84;;;7.66;100.00
71109;BME280;59614;51.012;-1.648;2022-12-24T02:02:22;99900.16;;;7.63;100.00
71109;BME280;59614;51.012;-1.648;2022-12-24T02:04:58;99896.66;;;7.62;100.00
71109;BME280;59614;51.012;-1.648;2022-12-24T02:07:26;99901.97;;;7.59;100.00
71109;BME280;59614;51.012;-1.648;2022-12-24T02:09:58;99906.34;;;7.58;100.00
71109;BME280;59614;51.012;-1.648;2022-12-24T02:12:25;99902.75;;;7.64;100.00
71109;BME280;59614;51.012;-1.648;2022-12-24T02:14:52;99919.47;;;7.58;100.00
71109;BME280;59614;51.012;-1.648;2022-12-24T02:17:41;99917.81;;;7.50;100.00
71109;BME280;59614;51.012;-1.648;2022-12-24T02:30:32;99921.66;;;7.21;100.00
71109;BME280;59614;51.012;-1.648;2022-12-24T02:33:23;99930.38;;;7.26;100.00
71109;BME280;59614;51.012;-1.648;2022-12-24T02:36:04;99936.47;;;7.26;100.00
71109;BME280;59614;51.012;-1.648;2022-12-24T02:41:16;99954.06;;;7.17;100.00
71109;BME280;59614;51.012;-1.648;2022-12-24T02:43:45;99956.69;;;7.18;100.00
71109;BME280;59614;51.012;-1.648;2022-12-24T02:46:16;99961.94;;;7.18;100.00
71109;BME280;59614;51.012;-1.648;2022-12-24T02:48:44;99959.25;;;7.23;100.00
71109;BME280;59614;51.012;-1.648;2022-12-24T02:51:11;99961.97;;;7.14;100.00
71109;BME280;59614;51.012;-1.648;2022-12-24T02:53:36;99955.81;;;7.16;100.00
71109;BME280;59614;51.012;-1.648;2022-12-24T03:01:47;99943.69;;;7.03;100.00
71109;BME280;59614;51.012;-1.648;2022-12-24T03:07:16;99964.00;;;6.85;100.00
71109;BME280;59614;51.012;-1.648;2022-12-24T03:12:39;99966.59;;;6.84;100.00
71109;BME280;59614;51.012;-1.648;2022-12-24T03:15:08;99961.34;;;6.87;100.00
71109;BME280;59614;51.012;-1.648;2022-12-24T03:17:36;99956.06;;;6.88;100.00
71109;BME280;59614;51.012;-1.648;2022-12-24T03:20:04;99949.06;;;6.90;100.00
71109;BME280;59614;51.012;-1.648;2022-12-24T03:22:31;99959.63;;;6.84;100.00
71109;BME280;59614;51.012;-1.648;2022-12-24T03:24:58;99967.53;;;6.78;100.00
71109;BME280;59614;51.012;-1.648;2022-12-24T03:27:25;99963.16;;;6.80;100.00
71109;BME280;59614;51.012;-1.648;2022-12-24T03:29:51;99965.72;;;6.86;100.00
71109;BME280;59614;51.012;-1.648;2022-12-24T03:32:23;99968.38;;;6.83;100.00
71109;BME280;59614;51.012;-1.648;2022-12-24T03:34:49;99970.97;;;6.85;100.00
71109;BME280;59614;51.012;-1.648;2022-12-24T03:37:14;99956.13;;;6.85;100.00
71109;BME280;59614;51.012;-1.648;2022-12-24T03:39:40;99956.13;;;6.82;100.00
71109;BME280;59614;51.012;-1.648;2022-12-24T03:42:05;99957.88;;;6.86;100.00
71109;BME280;59614;51.012;-1.648;2022-12-24T03:44:30;99977.09;;;6.85;100.00
71109;BME280;59614;51.012;-1.648;2022-12-24T03:46:56;99969.28;;;6.79;100.00
71109;BME280;59614;51.012;-1.648;2022-12-24T03:49:21;99978.88;;;6.83;100.00
71109;BME280;59614;51.012;-1.648;2022-12-24T03:51:47;99978.84;;;6.86;100.00
71109;BME280;59614;51.012;-1.648;2022-12-24T03:54:12;99990.25;;;6.82;100.00
71109;BME280;59614;51.012;-1.648;2022-12-24T03:56:37;99987.63;;;6.82;100.00
71109;BME280;59614;51.012;-1.648;2022-12-24T03:59:03;99977.97;;;6.83;100.00
71109;BME280;59614;51.012;-1.648;2022-12-24T04:01:28;99970.13;;;6.84;100.00
71109;BME280;59614;51.012;-1.648;2022-12-24T04:03:54;99971.91;;;6.80;100.00
71109;BME280;59614;51.012;-1.648;2022-12-24T04:06:19;99973.63;;;6.80;100.00
71109;BME280;59614;51.012;-1.648;2022-12-24T04:08:45;99972.78;;;6.78;100.00
71109;BME280;59614;51.012;-1.648;2022-12-24T04:11:13;99969.28;;;6.77;100.00
71109;BME280;59614;51.012;-1.648;2022-12-24T04:13:41;99977.16;;;6.80;100.00
71109;BME280;59614;51.012;-1.648;2022-12-24T04:16:10;99989.34;;;6.86;100.00
71109;BME280;59614;51.012;-1.648;2022-12-24T04:18:37;99995.41;;;6.88;100.00
71109;BME280;59614;51.012;-1.648;2022-12-24T04:21:03;99992.84;;;6.85;100.00
71109;BME280;59614;51.012;-1.648;2022-12-24T04:23:30;99996.34;;;6.84;100.00
71109;BME280;59614;51.012;-1.648;2022-12-24T04:25:58;99998.97;;;6.83;100.00
71109;BME280;59614;51.012;-1.648;2022-12-24T04:28:23;99996.34;;;6.83;100.00
71109;BME280;59614;51.012;-1.648;2022-12-24T04:30:49;99997.25;;;6.80;100.00
71109;BME280;59614;51.012;-1.648;2022-12-24T04:33:14;100003.34;;;6.85;100.00
71109;BME280;59614;51.012;-1.648;2022-12-24T04:35:40;100006.88;;;6.78;100.00
71109;BME280;59614;51.012;-1.648;2022-12-24T04:38:09;100020.88;;;6.77;100.00
71109;BME280;59614;51.012;-1.648;2022-12-24T04:40:35;100025.28;;;6.72;100.00
71109;BME280;59614;51.012;-1.648;2022-12-24T04:43:00;100015.69;;;6.71;100.00
71109;BME280;59614;51.012;-1.648;2022-12-24T04:45:26;100028.78;;;6.71;100.00
71109;BME280;59614;51.012;-1.648;2022-12-24T04:47:51;100014.78;;;6.70;100.00
71109;BME280;59614;51.012;-1.648;2022-12-24T04:50:16;100010.44;;;6.69;100.00
71109;BME280;59614;51.012;-1.648;2022-12-24T04:52:42;100015.69;;;6.68;100.00
71109;BME280;59614;51.012;-1.648;2022-12-24T04:55:08;100011.38;;;6.63;100.00
71109;BME280;59614;51.012;-1.648;2022-12-24T04:57:33;100019.25;;;6.60;100.00
71109;BME280;59614;51.012;-1.648;2022-12-24T05:00:00;100021.03;;;6.54;100.00
71109;BME280;59614;51.012;-1.648;2022-12-24T05:02:26;100022.75;;;6.56;100.00
71109;BME280;59614;51.012;-1.648;2022-12-24T05:04:51;100014.03;;;6.54;100.00
71109;BME280;59614;51.012;-1.648;2022-12-24T05:07:17;100021.88;;;6.54;100.00
71109;BME280;59614;51.012;-1.648;2022-12-24T05:09:42;100023.63;;;6.55;100.00
71109;BME280;59614;51.012;-1.648;2022-12-24T05:12:08;100024.56;;;6.48;100.00
71109;BME280;59614;51.012;-1.648;2022-12-24T05:14:33;100036.81;;;6.43;100.00
71109;BME280;59614;51.012;-1.648;2022-12-24T05:16:59;100036.88;;;6.37;100.00
71109;BME280;59614;51.012;-1.648;2022-12-24T05:19:24;100043.91;;;6.28;100.00
71109;BME280;59614;51.012;-1.648;2022-12-24T05:21:50;100038.66;;;6.28;100.00
71109;BME280;59614;51.012;-1.648;2022-12-24T05:24:35;100054.41;;;6.24;100.00
71109;BME280;59614;51.012;-1.648;2022-12-24T05:27:19;100058.81;;;6.17;100.00
71109;BME280;59614;51.012;-1.648;2022-12-24T05:29:45;100057.94;;;6.09;100.00
71109;BME280;59614;51.012;-1.648;2022-12-24T05:32:11;100073.69;;;6.06;100.00
71109;BME280;59614;51.012;-1.648;2022-12-24T05:34:36;100065.84;;;6.02;100.00
71109;BME280;59614;51.012;-1.648;2022-12-24T05:37:01;100059.69;;;5.97;100.00
71109;BME280;59614;51.012;-1.648;2022-12-24T05:39:27;100066.72;;;6.01;100.00
71109;BME280;59614;51.012;-1.648;2022-12-24T05:41:52;100065.84;;;6.01;100.00
71109;BME280;59614;51.012;-1.648;2022-12-24T05:44:18;100056.22;;;5.94;100.00
71109;BME280;59614;51.012;-1.648;2022-12-24T05:46:44;100059.72;;;5.91;100.00
71109;BME280;59614;51.012;-1.648;2022-12-24T05:49:10;100068.50;;;5.78;100.00
71109;BME280;59614;51.012;-1.648;2022-12-24T05:51:35;100065.03;;;5.74;100.00
71109;BME280;59614;51.012;-1.648;2022-12-24T05:54:01;100068.50;;;5.73;100.00
71109;BME280;59614;51.012;-1.648;2022-12-24T05:56:26;100065.00;;;5.76;100.00
71109;BME280;59614;51.012;-1.648;2022-12-24T05:58:52;100062.41;;;5.72;100.00
71109;BME280;59614;51.012;-1.648;2022-12-24T06:01:20;100062.41;;;5.74;100.00
71109;BME280;59614;51.012;-1.648;2022-12-24T06:03:46;100058.03;;;5.76;100.00
71109;BME280;59614;51.012;-1.648;2022-12-24T06:06:16;100059.78;;;5.71;100.00
71109;BME280;59614;51.012;-1.648;2022-12-24T06:08:44;100071.16;;;5.57;100.00
71109;BME280;59614;51.012;-1.648;2022-12-24T06:11:12;100075.53;;;5.57;100.00
71109;BME280;59614;51.012;-1.648;2022-12-24T06:13:38;100076.38;;;5.64;100.00
71109;BME280;59614;51.012;-1.648;2022-12-24T06:16:06;100081.63;;;5.71;100.00
71109;BME280;59614;51.012;-1.648;2022-12-24T06:18:33;100089.44;;;5.81;100.00
71109;BME280;59614;51.012;-1.648;2022-12-24T06:21:00;100096.41;;;5.83;100.00
71109;BME280;59614;51.012;-1.648;2022-12-24T06:23:28;100097.31;;;5.78;100.00
71109;BME280;59614;51.012;-1.648;2022-12-24T06:25:54;100099.06;;;5.77;100.00
71109;BME280;59614;51.012;-1.648;2022-12-24T06:28:20;100099.06;;;5.79;100.00
71109;BME280;59614;51.012;-1.648;2022-12-24T06:30:47;100097.31;;;5.75;100.00
71109;BME280;59614;51.012;-1.648;2022-12-24T06:33:13;100096.44;;;5.69;100.00
71109;BME280;59614;51.012;-1.648;2022-12-24T06:35:39;100095.59;;;5.63;100.00
71109;BME280;59614;51.012;-1.648;2022-12-24T06:38:05;100092.97;;;5.63;100.00
71109;BME280;59614;51.012;-1.648;2022-12-24T06:40:31;100092.09;;;5.56;100.00
71109;BME280;59614;51.012;-1.648;2022-12-24T06:42:56;100098.22;;;5.50;100.00
71109;BME280;59614;51.012;-1.648;2022-12-24T06:45:23;100098.22;;;5.43;100.00
71109;BME280;59614;51.012;-1.648;2022-12-24T06:47:48;100104.34;;;5.34;100.00
71109;BME280;59614;51.012;-1.648;2022-12-24T06:50:14;100098.25;;;5.39;100.00
71109;BME280;59614;51.012;-1.648;2022-12-24T06:52:39;100099.97;;;5.22;100.00
71109;BME280;59614;51.012;-1.648;2022-12-24T06:55:05;100098.25;;;5.18;100.00
71109;BME280;59614;51.012;-1.648;2022-12-24T06:57:30;100105.19;;;5.03;100.00
71109;BME280;59614;51.012;-1.648;2022-12-24T06:59:57;100108.66;;;4.96;100.00
71109;BME280;59614;51.012;-1.648;2022-12-24T07:02:22;100110.44;;;5.13;100.00
71109;BME280;59614;51.012;-1.648;2022-12-24T07:04:48;100112.19;;;5.26;100.00
71109;BME280;59614;51.012;-1.648;2022-12-24T07:07:14;100110.44;;;5.36;100.00
71109;BME280;59614;51.012;-1.648;2022-12-24T07:09:39;100112.19;;;5.38;100.00
71109;BME280;59614;51.012;-1.648;2022-12-24T07:12:05;100122.66;;;5.43;100.00
71109;BME280;59614;51.012;-1.648;2022-12-24T07:14:31;100122.66;;;5.48;100.00
71109;BME280;59614;51.012;-1.648;2022-12-24T07:16:56;100120.91;;;5.42;100.00
71109;BME280;59614;51.012;-1.648;2022-12-24T07:19:22;100121.78;;;5.41;100.00
71109;BME280;59614;51.012;-1.648;2022-12-24T07:21:48;100115.69;;;5.34;100.00
71109;BME280;59614;51.012;-1.648;2022-12-24T07:24:14;100115.69;;;5.23;100.00
71109;BME280;59614;51.012;-1.648;2022-12-24T07:26:40;100108.72;;;5.22;100.00
71109;BME280;59614;51.012;-1.648;2022-12-24T07:29:05;100105.19;;;5.31;100.00
71109;BME280;59614;51.012;-1.648;2022-12-24T07:31:31;100112.19;;;5.26;100.00
71109;BME280;59614;51.012;-1.648;2022-12-24T07:33:57;100109.59;;;5.29;100.00
71109;BME280;59614;51.012;-1.648;2022-12-24T07:36:22;100114.81;;;5.23;100.00
71109;BME280;59614;51.012;-1.648;2022-12-24T07:38:48;100123.53;;;5.28;100.00
71109;BME280;59614;51.012;-1.648;2022-12-24T07:41:14;100120.91;;;5.26;100.00
71109;BME280;59614;51.012;-1.648;2022-12-24T07:43:40;100112.19;;;5.35;100.00
71109;BME280;59614;51.012;-1.648;2022-12-24T07:46:05;100122.66;;;5.31;100.00
71109;BME280;59614;51.012;-1.648;2022-12-24T07:48:31;100117.41;;;5.41;100.00
71109;BME280;59614;51.012;-1.648;2022-12-24T07:50:57;100122.66;;;5.51;100.00
71109;BME280;59614;51.012;-1.648;2022-12-24T07:53:24;100122.66;;;5.60;100.00
71109;BME280;59614;51.012;-1.648;2022-12-24T07:55:50;100119.16;;;5.58;100.00
71109;BME280;59614;51.012;-1.648;2022-12-24T07:58:16;100137.50;;;5.56;100.00
71109;BME280;59614;51.012;-1.648;2022-12-24T08:00:41;100132.25;;;5.56;100.00
71109;BME280;59614;51.012;-1.648;2022-12-24T08:03:18;100140.97;;;5.62;100.00
71109;BME280;59614;51.012;-1.648;2022-12-24T08:05:44;100134.84;;;5.64;100.00
71109;BME280;59614;51.012;-1.648;2022-12-24T08:08:10;100142.72;;;5.43;100.00
71109;BME280;59614;51.012;-1.648;2022-12-24T08:10:40;100142.72;;;5.46;100.00
71109;BME280;59614;51.012;-1.648;2022-12-24T08:13:07;100141.84;;;5.40;100.00
71109;BME280;59614;51.012;-1.648;2022-12-24T08:15:35;100131.38;;;5.34;100.00
71109;BME280;59614;51.012;-1.648;2022-12-24T08:18:02;100145.31;;;5.30;100.00
71109;BME280;59614;51.012;-1.648;2022-12-24T08:20:28;100147.09;;;5.34;100.00
71109;BME280;59614;51.012;-1.648;2022-12-24T08:22:53;100140.97;;;5.26;100.00
71109;BME280;59614;51.012;-1.648;2022-12-24T08:25:19;100147.06;;;5.19;100.00
71109;BME280;59614;51.012;-1.648;2022-12-24T08:27:45;100134.84;;;5.21;100.00
71109;BME280;59614;51.012;-1.648;2022-12-24T08:30:17;100146.97;;;4.80;100.00
71109;BME280;59614;51.012;-1.648;2022-12-24T08:32:43;100141.81;;;5.03;100.00
71109;BME280;59614;51.012;-1.648;2022-12-24T08:35:08;100144.44;;;5.19;100.00
71109;BME280;59614;51.012;-1.648;2022-12-24T08:37:34;100148.81;;;5.18;100.00
71109;BME280;59614;51.012;-1.648;2022-12-24T08:39:59;100149.69;;;5.11;100.00
71109;BME280;59614;51.012;-1.648;2022-12-24T08:42:25;100153.16;;;5.02;100.00
71109;BME280;59614;51.012;-1.648;2022-12-24T08:44:50;100154.94;;;5.20;100.00
71109;BME280;59614;51.012;-1.648;2022-12-24T08:47:15;100157.53;;;5.14;100.00
71109;BME280;59614;51.012;-1.648;2022-12-24T08:49:41;100168.84;;;5.04;100.00
71109;BME280;59614;51.012;-1.648;2022-12-24T08:52:06;100158.41;;;5.12;100.00
71109;BME280;59614;51.012;-1.648;2022-12-24T08:54:32;100160.16;;;5.20;100.00
71109;BME280;59614;51.012;-1.648;2022-12-24T08:56:57;100154.91;;;5.31;100.00
71109;BME280;59614;51.012;-1.648;2022-12-24T08:59:23;100148.81;;;5.35;100.00
71109;BME280;59614;51.012;-1.648;2022-12-24T09:01:48;100142.72;;;5.44;100.00
71109;BME280;59614;51.012;-1.648;2022-12-24T09:04:13;100144.47;;;5.48;100.00
71109;BME280;59614;51.012;-1.648;2022-12-24T09:06:39;100151.44;;;5.24;100.00
71109;BME280;59614;51.012;-1.648;2022-12-24T09:09:05;100142.72;;;5.32;100.00
71109;BME280;59614;51.012;-1.648;2022-12-24T09:11:30;100152.31;;;5.44;100.00
71109;BME280;59614;51.012;-1.648;2022-12-24T09:13:55;100145.34;;;5.55;100.00
71109;BME280;59614;51.012;-1.648;2022-12-24T09:16:21;100151.44;;;5.40;100.00
71109;BME280;59614;51.012;-1.648;2022-12-24T09:18:46;100152.31;;;5.25;100.00
71109;BME280;59614;51.012;-1.648;2022-12-24T09:21:14;100161.94;;;5.43;100.00
71109;BME280;59614;51.012;-1.648;2022-12-24T09:23:41;100161.03;;;5.58;100.00
71109;BME280;59614;51.012;-1.648;2022-12-24T09:26:32;100154.94;;;5.65;100.00
71109;BME280;59614;51.012;-1.648;2022-12-24T09:28:58;100158.44;;;5.74;100.00
71109;BME280;59614;51.012;-1.648;2022-12-24T09:31:25;100160.16;;;5.81;100.00
71109;BME280;59614;51.012;-1.648;2022-12-24T09:33:51;100150.56;;;5.83;100.00
71109;BME280;59614;51.012;-1.648;2022-12-24T09:36:17;100155.78;;;5.86;100.00
71109;BME280;59614;51.012;-1.648;2022-12-24T09:38:42;100164.50;;;5.94;100.00
71109;BME280;59614;51.012;-1.648;2022-12-24T09:47:00;100170.66;;;6.01;100.00
71109;BME280;59614;51.012;-1.648;2022-12-24T09:49:37;100161.88;;;5.96;100.00
71109;BME280;59614;51.012;-1.648;2022-12-24T09:52:09;100167.16;;;6.03;100.00
71109;BME280;59614;51.012;-1.648;2022-12-24T09:54:40;100164.50;;;6.16;100.00
71109;BME280;59614;51.012;-1.648;2022-12-24T09:57:27;100171.47;;;6.15;100.00
71109;BME280;59614;51.012;-1.648;2022-12-24T09:59:54;100167.97;;;6.30;100.00
71109;BME280;59614;51.012;-1.648;2022-12-24T10:02:20;100171.47;;;6.23;100.00
71109;BME280;59614;51.012;-1.648;2022-12-24T10:04:46;100181.09;;;6.12;100.00
71109;BME280;59614;51.012;-1.648;2022-12-24T10:07:52;100179.34;;;6.17;100.00
71109;BME280;59614;51.012;-1.648;2022-12-24T10:15:42;100187.16;;;6.36;100.00
71109;BME280;59614;51.012;-1.648;2022-12-24T10:20:47;100184.56;;;6.22;100.00
71109;BME280;59614;51.012;-1.648;2022-12-24T10:28:53;100181.88;;;6.48;100.00
71109;BME280;59614;51.012;-1.648;2022-12-24T10:31:25;100183.63;;;6.49;100.00
71109;BME280;59614;51.012;-1.648;2022-12-24T10:34:11;100184.50;;;6.43;100.00
71109;BME280;59614;51.012;-1.648;2022-12-24T10:36:45;100181.88;;;6.42;100.00
71109;BME280;59614;51.012;-1.648;2022-12-24T10:39:16;100188.81;;;6.55;100.00
71109;BME280;59614;51.012;-1.648;2022-12-24T10:41:43;100195.00;;;6.46;100.00
71109;BME280;59614;51.012;-1.648;2022-12-24T10:44:14;100202.78;;;6.59;100.00
71109;BME280;59614;51.012;-1.648;2022-12-24T10:46:43;100204.50;;;6.68;100.00
71109;BME280;59614;51.012;-1.648;2022-12-24T10:51:58;100203.59;;;6.81;100.00
71109;BME280;59614;51.012;-1.648;2022-12-24T10:54:27;100196.59;;;6.80;100.00
71109;BME280;59614;51.012;-1.648;2022-12-24T10:57:00;100193.06;;;6.83;100.00
71109;BME280;59614;51.012;-1.648;2022-12-24T11:01:58;100188.72;;;6.86;100.00
71109;BME280;59614;51.012;-1.648;2022-12-24T11:04:29;100182.56;;;6.86;100.00
71109;BME280;59614;51.012;-1.648;2022-12-24T11:06:57;100200.97;;;6.84;100.00
71109;BME280;59614;51.012;-1.648;2022-12-24T11:09:30;100200.81;;;7.12;100.00
71109;BME280;59614;51.012;-1.648;2022-12-24T11:11:57;100186.56;;;7.44;100.00
71109;BME280;59614;51.012;-1.648;2022-12-24T11:14:26;100190.22;;;7.28;100.00
71109;BME280;59614;51.012;-1.648;2022-12-24T11:16:55;100186.78;;;7.16;100.00
71109;BME280;59614;51.012;-1.648;2022-12-24T11:19:34;100187.53;;;7.34;100.00
71109;BME280;59614;51.012;-1.648;2022-12-24T11:22:20;100185.75;;;7.40;100.00
71109;BME280;59614;51.012;-1.648;2022-12-24T11:25:21;100181.31;;;7.50;100.00
71109;BME280;59614;51.012;-1.648;2022-12-24T11:27:50;100177.59;;;7.75;100.00
71109;BME280;59614;51.012;-1.648;2022-12-24T11:32:44;100182.66;;;7.95;100.00
71109;BME280;59614;51.012;-1.648;2022-12-24T11:35:21;100181.63;;;8.11;100.00
71109;BME280;59614;51.012;-1.648;2022-12-24T11:37:48;100180.50;;;8.34;100.00
71109;BME280;59614;51.012;-1.648;2022-12-24T11:40:40;100179.63;;;8.37;100.00
71109;BME280;59614;51.012;-1.648;2022-12-24T11:43:06;100170.69;;;8.53;100.00
71109;BME280;59614;51.012;-1.648;2022-12-24T11:45:36;100181.25;;;8.48;100.00
71109;BME280;59614;51.012;-1.648;2022-12-24T11:48:24;100180.38;;;8.49;100.00
71109;BME280;59614;51.012;-1.648;2022-12-24T11:51:01;100177.72;;;8.53;100.00
71109;BME280;59614;51.012;-1.648;2022-12-24T11:53:52;100182.94;;;8.54;100.00
71109;BME280;59614;51.012;-1.648;2022-12-24T11:59:14;100168.81;;;8.63;100.00
71109;BME280;59614;51.012;-1.648;2022-12-24T12:04:19;100167.94;;;8.64;100.00
71109;BME280;59614;51.012;-1.648;2022-12-24T12:07:01;100169.53;;;8.73;100.00
71109;BME280;59614;51.012;-1.648;2022-12-24T12:09:36;100158.19;;;8.71;100.00
71109;BME280;59614;51.012;-1.648;2022-12-24T12:12:15;100168.63;;;8.77;100.00
71109;BME280;59614;51.012;-1.648;2022-12-24T12:14:50;100160.84;;;8.68;100.00
71109;BME280;59614;51.012;-1.648;2022-12-24T12:17:29;100159.00;;;8.77;100.00
71109;BME280;59614;51.012;-1.648;2022-12-24T12:20:02;100170.41;;;8.75;100.00
71109;BME280;59614;51.012;-1.648;2022-12-24T12:22:53;100155.44;;;8.78;100.00
71109;BME280;59614;51.012;-1.648;2022-12-24T12:25:24;100158.78;;;8.90;100.00
71109;BME280;59614;51.012;-1.648;2022-12-24T12:27:53;100146.44;;;8.95;100.00
71109;BME280;59614;51.012;-1.648;2022-12-24T12:30:21;100142.97;;;8.93;100.00
71109;BME280;59614;51.012;-1.648;2022-12-24T12:35:40;100144.59;;;9.02;100.00
71109;BME280;59614;51.012;-1.648;2022-12-24T12:38:20;100138.91;;;9.31;100.00
71109;BME280;59614;51.012;-1.648;2022-12-24T12:46:20;100156.09;;;9.54;100.00
71109;BME280;59614;51.012;-1.648;2022-12-24T12:51:28;100150.50;;;9.72;100.00
71109;BME280;59614;51.012;-1.648;2022-12-24T12:56:35;100146.72;;;9.89;100.00
71109;BME280;59614;51.012;-1.648;2022-12-24T12:59:15;100138.81;;;9.87;100.00
71109;BME280;59614;51.012;-1.648;2022-12-24T13:07:28;100139.56;;;9.94;100.00
71109;BME280;59614;51.012;-1.648;2022-12-24T13:21:03;100139.13;;;10.19;100.00
71109;BME280;59614;51.012;-1.648;2022-12-24T13:23:28;100139.16;;;10.16;100.00
71109;BME280;59614;51.012;-1.648;2022-12-24T13:25:56;100132.78;;;10.28;100.00
71109;BME280;59614;51.012;-1.648;2022-12-24T13:30:52;100112.69;;;10.20;100.00
71109;BME280;59614;51.012;-1.648;2022-12-24T13:36:02;100114.53;;;10.18;100.00
71109;BME280;59614;51.012;-1.648;2022-12-24T13:38:42;100127.91;;;10.08;100.00
71109;BME280;59614;51.012;-1.648;2022-12-24T13:47:03;100121.59;;;10.16;100.00
71109;BME280;59614;51.012;-1.648;2022-12-24T13:49:45;100122.50;;;10.15;100.00
71109;BME280;59614;51.012;-1.648;2022-12-24T14:00:42;100120.56;;;10.24;100.00
71109;BME280;59614;51.012;-1.648;2022-12-24T14:05:44;100114.34;;;10.26;100.00
71109;BME280;59614;51.012;-1.648;2022-12-24T14:08:41;100115.28;;;10.24;100.00
71109;BME280;59614;51.012;-1.648;2022-12-24T14:11:24;100110.75;;;10.30;100.00
71109;BME280;59614;51.012;-1.648;2022-12-24T14:13:51;100117.03;;;10.25;100.00
71109;BME280;59614;51.012;-1.648;2022-12-24T14:19:09;100114.53;;;10.17;100.00
71109;BME280;59614;51.012;-1.648;2022-12-24T14:21:43;100104.94;;;10.14;100.00
71109;BME280;59614;51.012;-1.648;2022-12-24T14:24:21;100112.69;;;10.20;100.00
71109;BME280;59614;51.012;-1.648;2022-12-24T14:30:12;100105.03;;;10.10;100.00
71109;BME280;59614;51.012;-1.648;2022-12-24T14:32:40;100100.72;;;10.04;100.00
71109;BME280;59614;51.012;-1.648;2022-12-24T14:37:38;100087.50;;;10.05;100.00
71109;BME280;59614;51.012;-1.648;2022-12-24T14:40:05;100086.72;;;10.02;100.00
71109;BME280;59614;51.012;-1.648;2022-12-24T14:42:38;100090.34;;;9.96;100.00
71109;BME280;59614;51.012;-1.648;2022-12-24T14:48:13;100095.66;;;9.93;100.00
71109;BME280;59614;51.012;-1.648;2022-12-24T14:56:13;100081.63;;;9.91;100.00
71109;BME280;59614;51.012;-1.648;2022-12-24T14:58:39;100090.38;;;9.95;100.00